sensor_id;sensor_type;location;lat;lon;timestamp;temperature;humidity
1337;DHT22;662;48.814;9.318;2022-10-22T00:01:33;16.30;77.80
1337;DHT22;662;48.814;9.318;2022-10-22T00:03:59;16.20;77.50
1337;DHT22;662;48.814;9.318;2022-10-22T00:06:24;16.20;77.60
1337;DHT22;662;48.814;9.318;2022-10-22T00:08:50;16.20;77.60
1337;DHT22;662;48.814;9.318;2022-10-22T00:11:18;16.20;77.60
1337;DHT22;662;48.814;9.318;2022-10-22T00:13:44;16.10;77.50
1337;DHT22;662;48.814;9.318;2022-10-22T00:16:10;16.10;77.60
1337;DHT22;662;48.814;9.318;2022-10-22T00:18:35;16.10;77.80
1337;DHT22;662;48.814;9.318;2022-10-22T00:21:01;16.20;78.00
1337;DHT22;662;48.814;9.318;2022-10-22T00:23:27;16.10;78.20
1337;DHT22;662;48.814;9.318;2022-10-22T00:25:53;16.20;78.40
1337;DHT22;662;48.814;9.318;2022-10-22T00:28:19;16.10;78.30
1337;DHT22;662;48.814;9.318;2022-10-22T00:30:45;16.10;78.50
1337;DHT22;662;48.814;9.318;2022-10-22T00:33:11;16.20;78.70
1337;DHT22;662;48.814;9.318;2022-10-22T00:35:36;16.10;78.70
1337;DHT22;662;48.814;9.318;2022-10-22T00:38:02;16.10;78.90
1337;DHT22;662;48.814;9.318;2022-10-22T00:40:28;16.10;78.90
1337;DHT22;662;48.814;9.318;2022-10-22T00:42:54;16.10;79.10
1337;DHT22;662;48.814;9.318;2022-10-22T00:45:25;16.00;79.10
1337;DHT22;662;48.814;9.318;2022-10-22T00:50:21;16.00;79.40
1337;DHT22;662;48.814;9.318;2022-10-22T00:52:48;16.00;79.70
1337;DHT22;662;48.814;9.318;2022-10-22T00:55:14;16.00;79.90
1337;DHT22;662;48.814;9.318;2022-10-22T00:57:40;16.00;80.00
1337;DHT22;662;48.814;9.318;2022-10-22T01:00:07;16.00;80.20
1337;DHT22;662;48.814;9.318;2022-10-22T01:02:33;16.00;80.20
1337;DHT22;662;48.814;9.318;2022-10-22T01:04:58;16.00;80.30
1337;DHT22;662;48.814;9.318;2022-10-22T01:07:25;16.00;80.40
1337;DHT22;662;48.814;9.318;2022-10-22T01:13:19;16.00;80.80
1337;DHT22;662;48.814;9.318;2022-10-22T01:21:32;16.00;80.80
1337;DHT22;662;48.814;9.318;2022-10-22T01:26:53;16.00;80.90
1337;DHT22;662;48.814;9.318;2022-10-22T01:29:39;16.00;80.90
1337;DHT22;662;48.814;9.318;2022-10-22T01:32:13;16.00;81.00
1337;DHT22;662;48.814;9.318;2022-10-22T01:34:42;15.90;81.10
1337;DHT22;662;48.814;9.318;2022-10-22T01:37:10;15.90;81.30
1337;DHT22;662;48.814;9.318;2022-10-22T01:39:37;15.90;81.40
1337;DHT22;662;48.814;9.318;2022-10-22T01:42:04;15.80;81.30
1337;DHT22;662;48.814;9.318;2022-10-22T01:44:33;15.80;81.30
1337;DHT22;662;48.814;9.318;2022-10-22T01:47:49;15.80;81.50
1337;DHT22;662;48.814;9.318;2022-10-22T01:50:13;15.80;81.20
1337;DHT22;662;48.814;9.318;2022-10-22T02:01:14;15.70;81.30
1337;DHT22;662;48.814;9.318;2022-10-22T02:03:58;15.70;81.40
1337;DHT22;662;48.814;9.318;2022-10-22T02:06:26;15.70;81.20
1337;DHT22;662;48.814;9.318;2022-10-22T02:08:53;15.70;81.30
1337;DHT22;662;48.814;9.318;2022-10-22T02:11:20;15.70;81.40
1337;DHT22;662;48.814;9.318;2022-10-22T02:13:48;15.70;81.40
1337;DHT22;662;48.814;9.318;2022-10-22T02:16:22;15.70;81.50
1337;DHT22;662;48.814;9.318;2022-10-22T02:18:51;15.70;81.50
1337;DHT22;662;48.814;9.318;2022-10-22T02:21:18;15.70;81.50
1337;DHT22;662;48.814;9.318;2022-10-22T02:23:44;15.80;81.60
1337;DHT22;662;48.814;9.318;2022-10-22T02:28:57;15.80;81.50
1337;DHT22;662;48.814;9.318;2022-10-22T02:31:27;15.80;81.50
1337;DHT22;662;48.814;9.318;2022-10-22T02:33:56;15.90;81.60
1337;DHT22;662;48.814;9.318;2022-10-22T02:36:25;15.80;81.40
1337;DHT22;662;48.814;9.318;2022-10-22T02:38:52;15.80;81.40
1337;DHT22;662;48.814;9.318;2022-10-22T02:41:18;15.90;81.60
1337;DHT22;662;48.814;9.318;2022-10-22T02:43:51;15.80;81.30
1337;DHT22;662;48.814;9.318;2022-10-22T02:46:17;15.80;81.20
1337;DHT22;662;48.814;9.318;2022-10-22T02:48:43;15.80;81.30
1337;DHT22;662;48.814;9.318;2022-10-22T02:51:09;15.90;81.30
1337;DHT22;662;48.814;9.318;2022-10-22T02:53:34;15.80;81.20
1337;DHT22;662;48.814;9.318;2022-10-22T02:56:00;15.80;81.30
1337;DHT22;662;48.814;9.318;2022-10-22T02:58:26;15.80;81.30
1337;DHT22;662;48.814;9.318;2022-10-22T03:00:51;15.80;81.20
1337;DHT22;662;48.814;9.318;2022-10-22T03:03:17;15.80;81.10
1337;DHT22;662;48.814;9.318;2022-10-22T03:05:43;15.80;81.10
1337;DHT22;662;48.814;9.318;2022-10-22T03:08:08;15.80;81.00
1337;DHT22;662;48.814;9.318;2022-10-22T03:10:34;15.80;80.70
1337;DHT22;662;48.814;9.318;2022-10-22T03:12:59;15.80;80.60
1337;DHT22;662;48.814;9.318;2022-10-22T03:15:25;15.80;80.70
1337;DHT22;662;48.814;9.318;2022-10-22T03:17:50;15.80;80.80
1337;DHT22;662;48.814;9.318;2022-10-22T03:20:16;15.80;81.00
1337;DHT22;662;48.814;9.318;2022-10-22T03:22:42;15.80;81.10
1337;DHT22;662;48.814;9.318;2022-10-22T03:25:13;15.80;81.20
1337;DHT22;662;48.814;9.318;2022-10-22T03:27:40;15.70;81.20
1337;DHT22;662;48.814;9.318;2022-10-22T03:30:07;15.80;82.00
1337;DHT22;662;48.814;9.318;2022-10-22T03:32:33;15.80;81.30
1337;DHT22;662;48.814;9.318;2022-10-22T03:34:59;15.80;81.30
1337;DHT22;662;48.814;9.318;2022-10-22T03:37:26;15.80;81.30
1337;DHT22;662;48.814;9.318;2022-10-22T03:39:53;15.80;81.30
1337;DHT22;662;48.814;9.318;2022-10-22T03:42:19;15.80;81.30
1337;DHT22;662;48.814;9.318;2022-10-22T03:44:45;15.80;81.30
1337;DHT22;662;48.814;9.318;2022-10-22T03:47:10;15.80;81.30
1337;DHT22;662;48.814;9.318;2022-10-22T03:49:36;15.80;81.20
1337;DHT22;662;48.814;9.318;2022-10-22T03:52:10;15.80;81.30
1337;DHT22;662;48.814;9.318;2022-10-22T03:54:37;15.70;81.40
1337;DHT22;662;48.814;9.318;2022-10-22T03:57:04;15.70;81.40
1337;DHT22;662;48.814;9.318;2022-10-22T03:59:37;15.70;81.50
1337;DHT22;662;48.814;9.318;2022-10-22T04:02:03;15.70;81.50
1337;DHT22;662;48.814;9.318;2022-10-22T04:04:29;15.70;81.20
1337;DHT22;662;48.814;9.318;2022-10-22T04:06:55;15.70;80.80
1337;DHT22;662;48.814;9.318;2022-10-22T04:09:21;15.70;80.80
1337;DHT22;662;48.814;9.318;2022-10-22T04:11:46;15.70;81.00
1337;DHT22;662;48.814;9.318;2022-10-22T04:14:12;15.60;80.90
1337;DHT22;662;48.814;9.318;2022-10-22T04:16:41;15.70;81.20
1337;DHT22;662;48.814;9.318;2022-10-22T04:19:07;15.60;81.20
1337;DHT22;662;48.814;9.318;2022-10-22T04:21:33;15.70;81.40
1337;DHT22;662;48.814;9.318;2022-10-22T04:23:59;15.70;81.50
1337;DHT22;662;48.814;9.318;2022-10-22T04:26:25;15.70;81.50
1337;DHT22;662;48.814;9.318;2022-10-22T04:28:52;15.70;81.50
1337;DHT22;662;48.814;9.318;2022-10-22T04:31:20;15.70;81.50
1337;DHT22;662;48.814;9.318;2022-10-22T04:33:46;15.70;81.50
1337;DHT22;662;48.814;9.318;2022-10-22T04:36:15;15.70;81.50
1337;DHT22;662;48.814;9.318;2022-10-22T04:38:42;15.70;81.50
1337;DHT22;662;48.814;9.318;2022-10-22T04:41:13;15.60;81.40
1337;DHT22;662;48.814;9.318;2022-10-22T04:43:39;15.60;81.50
1337;DHT22;662;48.814;9.318;2022-10-22T04:46:05;15.60;81.50
1337;DHT22;662;48.814;9.318;2022-10-22T04:48:37;15.60;81.60
1337;DHT22;662;48.814;9.318;2022-10-22T04:51:04;15.60;81.60
1337;DHT22;662;48.814;9.318;2022-10-22T04:53:29;15.60;81.80
1337;DHT22;662;48.814;9.318;2022-10-22T04:56:25;15.60;81.80
1337;DHT22;662;48.814;9.318;2022-10-22T04:59:02;15.60;81.90
1337;DHT22;662;48.814;9.318;2022-10-22T05:01:30;15.60;81.80
1337;DHT22;662;48.814;9.318;2022-10-22T05:03:58;15.60;81.80
1337;DHT22;662;48.814;9.318;2022-10-22T05:06:25;15.60;81.70
1337;DHT22;662;48.814;9.318;2022-10-22T05:08:56;15.60;81.60
1337;DHT22;662;48.814;9.318;2022-10-22T05:11:27;15.50;81.40
1337;DHT22;662;48.814;9.318;2022-10-22T05:13:57;15.50;81.30
1337;DHT22;662;48.814;9.318;2022-10-22T05:16:24;15.40;81.90
1337;DHT22;662;48.814;9.318;2022-10-22T05:18:49;15.40;81.30
1337;DHT22;662;48.814;9.318;2022-10-22T05:21:17;15.40;81.50
1337;DHT22;662;48.814;9.318;2022-10-22T05:23:44;15.40;81.50
1337;DHT22;662;48.814;9.318;2022-10-22T05:26:11;15.40;81.60
1337;DHT22;662;48.814;9.318;2022-10-22T05:28:38;15.50;81.70
1337;DHT22;662;48.814;9.318;2022-10-22T05:31:05;15.50;81.70
1337;DHT22;662;48.814;9.318;2022-10-22T05:33:32;15.50;81.70
1337;DHT22;662;48.814;9.318;2022-10-22T05:35:58;15.50;81.70
1337;DHT22;662;48.814;9.318;2022-10-22T05:38:24;15.50;82.30
1337;DHT22;662;48.814;9.318;2022-10-22T05:41:01;15.50;81.60
1337;DHT22;662;48.814;9.318;2022-10-22T05:43:27;15.50;81.60
1337;DHT22;662;48.814;9.318;2022-10-22T05:45:53;15.50;81.60
1337;DHT22;662;48.814;9.318;2022-10-22T05:48:19;15.50;81.60
1337;DHT22;662;48.814;9.318;2022-10-22T05:50:44;15.50;81.60
1337;DHT22;662;48.814;9.318;2022-10-22T05:53:16;15.50;81.60
1337;DHT22;662;48.814;9.318;2022-10-22T05:55:42;15.50;81.60
1337;DHT22;662;48.814;9.318;2022-10-22T05:58:09;15.50;81.60
1337;DHT22;662;48.814;9.318;2022-10-22T06:00:35;15.50;81.60
1337;DHT22;662;48.814;9.318;2022-10-22T06:03:00;15.50;81.60
1337;DHT22;662;48.814;9.318;2022-10-22T06:05:26;15.50;81.50
1337;DHT22;662;48.814;9.318;2022-10-22T06:07:51;15.60;81.60
1337;DHT22;662;48.814;9.318;2022-10-22T06:10:19;15.60;81.60
1337;DHT22;662;48.814;9.318;2022-10-22T06:12:46;15.60;81.60
1337;DHT22;662;48.814;9.318;2022-10-22T06:15:13;15.60;81.70
1337;DHT22;662;48.814;9.318;2022-10-22T06:17:40;15.50;81.50
1337;DHT22;662;48.814;9.318;2022-10-22T06:20:06;15.60;81.60
1337;DHT22;662;48.814;9.318;2022-10-22T06:22:32;15.60;81.70
1337;DHT22;662;48.814;9.318;2022-10-22T06:24:58;15.60;81.70
1337;DHT22;662;48.814;9.318;2022-10-22T06:27:23;15.60;81.80
1337;DHT22;662;48.814;9.318;2022-10-22T06:29:49;15.60;81.90
1337;DHT22;662;48.814;9.318;2022-10-22T06:32:14;15.50;81.80
1337;DHT22;662;48.814;9.318;2022-10-22T06:34:40;15.60;82.00
1337;DHT22;662;48.814;9.318;2022-10-22T06:37:05;15.60;82.10
1337;DHT22;662;48.814;9.318;2022-10-22T06:39:31;15.60;82.20
1337;DHT22;662;48.814;9.318;2022-10-22T06:41:57;15.70;82.30
1337;DHT22;662;48.814;9.318;2022-10-22T06:44:22;15.70;82.20
1337;DHT22;662;48.814;9.318;2022-10-22T06:46:52;15.70;82.20
1337;DHT22;662;48.814;9.318;2022-10-22T06:49:18;15.70;82.20
1337;DHT22;662;48.814;9.318;2022-10-22T06:51:47;15.80;82.30
1337;DHT22;662;48.814;9.318;2022-10-22T06:54:13;15.80;82.10
1337;DHT22;662;48.814;9.318;2022-10-22T06:56:39;15.80;81.90
1337;DHT22;662;48.814;9.318;2022-10-22T06:59:04;15.80;81.90
1337;DHT22;662;48.814;9.318;2022-10-22T07:01:32;15.80;81.90
1337;DHT22;662;48.814;9.318;2022-10-22T07:03:58;15.80;81.90
1337;DHT22;662;48.814;9.318;2022-10-22T07:06:25;15.90;81.90
1337;DHT22;662;48.814;9.318;2022-10-22T07:08:53;15.90;81.80
1337;DHT22;662;48.814;9.318;2022-10-22T07:11:24;15.90;81.70
1337;DHT22;662;48.814;9.318;2022-10-22T07:13:52;15.90;81.60
1337;DHT22;662;48.814;9.318;2022-10-22T07:16:18;15.90;81.50
1337;DHT22;662;48.814;9.318;2022-10-22T07:18:45;16.00;81.60
1337;DHT22;662;48.814;9.318;2022-10-22T07:21:11;16.10;81.50
1337;DHT22;662;48.814;9.318;2022-10-22T07:23:37;16.10;81.30
1337;DHT22;662;48.814;9.318;2022-10-22T07:26:04;16.10;81.10
1337;DHT22;662;48.814;9.318;2022-10-22T07:28:32;16.20;81.10
1337;DHT22;662;48.814;9.318;2022-10-22T07:30:58;16.20;80.70
1337;DHT22;662;48.814;9.318;2022-10-22T07:33:24;16.30;80.50
1337;DHT22;662;48.814;9.318;2022-10-22T07:35:49;16.30;80.30
1337;DHT22;662;48.814;9.318;2022-10-22T07:38:15;16.30;80.00
1337;DHT22;662;48.814;9.318;2022-10-22T07:40:41;16.40;80.50
1337;DHT22;662;48.814;9.318;2022-10-22T07:43:06;16.50;79.70
1337;DHT22;662;48.814;9.318;2022-10-22T07:45:32;16.50;79.60
1337;DHT22;662;48.814;9.318;2022-10-22T07:47:58;16.60;79.50
1337;DHT22;662;48.814;9.318;2022-10-22T07:50:25;16.60;79.40
1337;DHT22;662;48.814;9.318;2022-10-22T07:52:50;16.60;79.30
1337;DHT22;662;48.814;9.318;2022-10-22T07:55:16;16.70;79.30
1337;DHT22;662;48.814;9.318;2022-10-22T07:57:42;16.60;78.90
1337;DHT22;662;48.814;9.318;2022-10-22T08:00:08;16.70;79.00
1337;DHT22;662;48.814;9.318;2022-10-22T08:02:34;16.70;79.00
1337;DHT22;662;48.814;9.318;2022-10-22T08:04:59;16.70;79.00
1337;DHT22;662;48.814;9.318;2022-10-22T08:07:25;16.80;79.00
1337;DHT22;662;48.814;9.318;2022-10-22T08:09:51;16.80;78.90
1337;DHT22;662;48.814;9.318;2022-10-22T08:12:17;16.90;78.50
1337;DHT22;662;48.814;9.318;2022-10-22T08:14:42;17.00;78.00
1337;DHT22;662;48.814;9.318;2022-10-22T08:17:08;17.10;77.70
1337;DHT22;662;48.814;9.318;2022-10-22T08:19:34;17.20;77.40
1337;DHT22;662;48.814;9.318;2022-10-22T08:22:00;17.20;77.20
1337;DHT22;662;48.814;9.318;2022-10-22T08:24:26;17.30;76.90
1337;DHT22;662;48.814;9.318;2022-10-22T08:26:52;17.30;76.40
1337;DHT22;662;48.814;9.318;2022-10-22T08:29:23;17.40;76.30
1337;DHT22;662;48.814;9.318;2022-10-22T08:31:49;17.40;76.30
1337;DHT22;662;48.814;9.318;2022-10-22T08:34:16;17.50;76.30
1337;DHT22;662;48.814;9.318;2022-10-22T08:36:42;17.60;76.40
1337;DHT22;662;48.814;9.318;2022-10-22T08:39:08;17.60;75.60
1337;DHT22;662;48.814;9.318;2022-10-22T08:49:53;17.90;74.20
1337;DHT22;662;48.814;9.318;2022-10-22T08:52:19;17.90;74.00
1337;DHT22;662;48.814;9.318;2022-10-22T08:54:57;17.90;74.20
1337;DHT22;662;48.814;9.318;2022-10-22T08:57:48;17.90;74.00
1337;DHT22;662;48.814;9.318;2022-10-22T09:03:21;17.80;73.90
1337;DHT22;662;48.814;9.318;2022-10-22T09:08:37;17.80;74.00
1337;DHT22;662;48.814;9.318;2022-10-22T09:13:41;17.80;74.00
1337;DHT22;662;48.814;9.318;2022-10-22T09:16:35;17.90;74.20
1337;DHT22;662;48.814;9.318;2022-10-22T09:19:14;17.80;74.30
1337;DHT22;662;48.814;9.318;2022-10-22T09:22:00;17.90;74.40
1337;DHT22;662;48.814;9.318;2022-10-22T09:24:34;17.90;73.80
1337;DHT22;662;48.814;9.318;2022-10-22T09:27:06;18.00;73.80
1337;DHT22;662;48.814;9.318;2022-10-22T09:29:34;18.00;73.60
1337;DHT22;662;48.814;9.318;2022-10-22T09:32:00;18.00;73.50
1337;DHT22;662;48.814;9.318;2022-10-22T09:34:27;18.00;73.50
1337;DHT22;662;48.814;9.318;2022-10-22T09:37:01;18.00;73.20
1337;DHT22;662;48.814;9.318;2022-10-22T09:39:32;18.10;73.50
1337;DHT22;662;48.814;9.318;2022-10-22T09:41:58;18.10;73.30
1337;DHT22;662;48.814;9.318;2022-10-22T09:44:24;18.10;73.10
1337;DHT22;662;48.814;9.318;2022-10-22T09:46:49;18.10;73.10
1337;DHT22;662;48.814;9.318;2022-10-22T09:49:18;18.10;72.90
1337;DHT22;662;48.814;9.318;2022-10-22T09:51:56;18.30;73.00
1337;DHT22;662;48.814;9.318;2022-10-22T09:59:37;18.40;72.60
1337;DHT22;662;48.814;9.318;2022-10-22T10:04:45;18.50;71.90
1337;DHT22;662;48.814;9.318;2022-10-22T10:09:45;18.60;72.10
1337;DHT22;662;48.814;9.318;2022-10-22T10:12:34;18.60;71.50
1337;DHT22;662;48.814;9.318;2022-10-22T10:20:54;18.80;71.40
1337;DHT22;662;48.814;9.318;2022-10-22T10:23:54;18.90;71.30
1337;DHT22;662;48.814;9.318;2022-10-22T10:26:27;19.00;71.30
1337;DHT22;662;48.814;9.318;2022-10-22T10:34:42;19.20;70.70
1337;DHT22;662;48.814;9.318;2022-10-22T10:42:52;19.30;70.00
1337;DHT22;662;48.814;9.318;2022-10-22T10:45:32;19.30;68.90
1337;DHT22;662;48.814;9.318;2022-10-22T10:51:22;19.40;68.10
1337;DHT22;662;48.814;9.318;2022-10-22T10:54:01;19.50;67.40
1337;DHT22;662;48.814;9.318;2022-10-22T10:56:39;19.50;67.30
1337;DHT22;662;48.814;9.318;2022-10-22T10:59:13;19.60;67.10
1337;DHT22;662;48.814;9.318;2022-10-22T11:07:16;20.10;66.30
1337;DHT22;662;48.814;9.318;2022-10-22T11:09:52;20.20;65.70
1337;DHT22;662;48.814;9.318;2022-10-22T11:12:27;20.30;65.30
1337;DHT22;662;48.814;9.318;2022-10-22T11:17:58;20.40;65.20
1337;DHT22;662;48.814;9.318;2022-10-22T11:23:08;20.40;64.00
1337;DHT22;662;48.814;9.318;2022-10-22T11:25:43;20.90;63.70
1337;DHT22;662;48.814;9.318;2022-10-22T11:28:19;21.50;61.90
1337;DHT22;662;48.814;9.318;2022-10-22T11:30:51;22.20;59.90
1337;DHT22;662;48.814;9.318;2022-10-22T11:33:21;22.90;58.70
1337;DHT22;662;48.814;9.318;2022-10-22T11:35:48;23.30;57.70
1337;DHT22;662;48.814;9.318;2022-10-22T11:38:17;23.30;56.80
1337;DHT22;662;48.814;9.318;2022-10-22T11:40:51;23.20;56.60
1337;DHT22;662;48.814;9.318;2022-10-22T11:43:28;23.40;55.90
1337;DHT22;662;48.814;9.318;2022-10-22T11:46:08;23.90;55.40
1337;DHT22;662;48.814;9.318;2022-10-22T11:49:18;24.50;54.40
1337;DHT22;662;48.814;9.318;2022-10-22T11:51:46;25.20;53.40
1337;DHT22;662;48.814;9.318;2022-10-22T12:08:00;25.50;50.30
1337;DHT22;662;48.814;9.318;2022-10-22T12:10:33;25.80;50.20
1337;DHT22;662;48.814;9.318;2022-10-22T12:13:25;25.90;49.90
1337;DHT22;662;48.814;9.318;2022-10-22T12:15:55;26.00;49.30
1337;DHT22;662;48.814;9.318;2022-10-22T12:18:29;25.80;49.40
1337;DHT22;662;48.814;9.318;2022-10-22T12:20:56;25.60;49.90
1337;DHT22;662;48.814;9.318;2022-10-22T12:23:29;25.20;50.10
1337;DHT22;662;48.814;9.318;2022-10-22T12:25:55;24.80;50.70
1337;DHT22;662;48.814;9.318;2022-10-22T12:28:20;24.60;51.60
1337;DHT22;662;48.814;9.318;2022-10-22T12:30:47;24.60;51.90
1337;DHT22;662;48.814;9.318;2022-10-22T12:33:21;24.70;52.00
1337;DHT22;662;48.814;9.318;2022-10-22T12:35:49;25.10;52.00
1337;DHT22;662;48.814;9.318;2022-10-22T12:38:23;25.50;51.30
1337;DHT22;662;48.814;9.318;2022-10-22T12:40:53;26.00;50.40
1337;DHT22;662;48.814;9.318;2022-10-22T12:43:27;26.50;49.50
1337;DHT22;662;48.814;9.318;2022-10-22T12:45:53;26.90;48.70
1337;DHT22;662;48.814;9.318;2022-10-22T12:48:28;27.30;47.70
1337;DHT22;662;48.814;9.318;2022-10-22T12:50:58;27.60;45.50
1337;DHT22;662;48.814;9.318;2022-10-22T12:53:35;27.70;43.60
1337;DHT22;662;48.814;9.318;2022-10-22T12:56:05;27.90;43.60
1337;DHT22;662;48.814;9.318;2022-10-22T12:58:40;28.20;43.80
1337;DHT22;662;48.814;9.318;2022-10-22T13:01:06;28.40;43.80
1337;DHT22;662;48.814;9.318;2022-10-22T13:03:40;28.70;43.70
1337;DHT22;662;48.814;9.318;2022-10-22T13:12:04;28.90;43.30
1337;DHT22;662;48.814;9.318;2022-10-22T13:14:36;28.90;43.40
1337;DHT22;662;48.814;9.318;2022-10-22T13:17:11;29.10;43.60
1337;DHT22;662;48.814;9.318;2022-10-22T13:20:00;29.20;42.90
1337;DHT22;662;48.814;9.318;2022-10-22T13:22:41;29.30;42.20
1337;DHT22;662;48.814;9.318;2022-10-22T13:30:18;29.70;39.40
1337;DHT22;662;48.814;9.318;2022-10-22T13:32:49;29.90;39.10
1337;DHT22;662;48.814;9.318;2022-10-22T13:35:19;30.10;38.50
1337;DHT22;662;48.814;9.318;2022-10-22T13:37:46;30.30;37.90
1337;DHT22;662;48.814;9.318;2022-10-22T13:40:12;30.40;37.40
1337;DHT22;662;48.814;9.318;2022-10-22T13:42:38;30.60;37.50
1337;DHT22;662;48.814;9.318;2022-10-22T13:45:04;30.70;37.80
1337;DHT22;662;48.814;9.318;2022-10-22T13:47:30;30.80;37.00
1337;DHT22;662;48.814;9.318;2022-10-22T13:50:02;30.80;36.40
1337;DHT22;662;48.814;9.318;2022-10-22T13:52:45;30.50;35.50
1337;DHT22;662;48.814;9.318;2022-10-22T13:55:22;30.10;35.90
1337;DHT22;662;48.814;9.318;2022-10-22T13:58:18;29.60;36.80
1337;DHT22;662;48.814;9.318;2022-10-22T14:00:46;28.80;38.00
1337;DHT22;662;48.814;9.318;2022-10-22T14:03:16;28.10;39.10
1337;DHT22;662;48.814;9.318;2022-10-22T14:05:44;27.50;39.90
1337;DHT22;662;48.814;9.318;2022-10-22T14:08:12;27.00;40.60
1337;DHT22;662;48.814;9.318;2022-10-22T14:10:38;26.50;42.10
1337;DHT22;662;48.814;9.318;2022-10-22T14:13:09;26.10;43.70
1337;DHT22;662;48.814;9.318;2022-10-22T14:15:35;25.60;44.50
1337;DHT22;662;48.814;9.318;2022-10-22T14:18:03;25.30;45.90
1337;DHT22;662;48.814;9.318;2022-10-22T14:20:31;25.10;46.90
1337;DHT22;662;48.814;9.318;2022-10-22T14:23:04;25.30;47.40
1337;DHT22;662;48.814;9.318;2022-10-22T14:25:32;25.40;47.70
1337;DHT22;662;48.814;9.318;2022-10-22T14:27:57;25.50;47.70
1337;DHT22;662;48.814;9.318;2022-10-22T14:30:24;25.40;47.80
1337;DHT22;662;48.814;9.318;2022-10-22T14:32:51;25.20;48.10
1337;DHT22;662;48.814;9.318;2022-10-22T14:35:19;25.00;48.20
1337;DHT22;662;48.814;9.318;2022-10-22T14:37:46;24.90;48.00
1337;DHT22;662;48.814;9.318;2022-10-22T14:40:15;24.70;48.40
1337;DHT22;662;48.814;9.318;2022-10-22T14:42:43;24.40;47.60
1337;DHT22;662;48.814;9.318;2022-10-22T14:45:23;24.30;48.10
1337;DHT22;662;48.814;9.318;2022-10-22T14:47:50;24.00;48.30
1337;DHT22;662;48.814;9.318;2022-10-22T14:50:17;23.80;48.60
1337;DHT22;662;48.814;9.318;2022-10-22T14:52:43;23.50;49.30
1337;DHT22;662;48.814;9.318;2022-10-22T14:55:11;23.30;49.00
1337;DHT22;662;48.814;9.318;2022-10-22T14:57:39;23.10;48.80
1337;DHT22;662;48.814;9.318;2022-10-22T15:00:06;23.00;48.60
1337;DHT22;662;48.814;9.318;2022-10-22T15:02:32;22.80;48.50
1337;DHT22;662;48.814;9.318;2022-10-22T15:04:58;22.60;48.60
1337;DHT22;662;48.814;9.318;2022-10-22T15:07:23;22.40;48.80
1337;DHT22;662;48.814;9.318;2022-10-22T15:09:49;22.30;49.00
1337;DHT22;662;48.814;9.318;2022-10-22T15:12:15;22.20;49.50
1337;DHT22;662;48.814;9.318;2022-10-22T15:14:41;22.10;50.20
1337;DHT22;662;48.814;9.318;2022-10-22T15:17:07;21.90;49.70
1337;DHT22;662;48.814;9.318;2022-10-22T15:19:32;21.80;50.10
1337;DHT22;662;48.814;9.318;2022-10-22T15:21:58;21.80;50.40
1337;DHT22;662;48.814;9.318;2022-10-22T15:24:23;21.70;50.60
1337;DHT22;662;48.814;9.318;2022-10-22T15:26:49;21.60;50.60
1337;DHT22;662;48.814;9.318;2022-10-22T15:29:18;21.50;50.90
1337;DHT22;662;48.814;9.318;2022-10-22T15:31:53;21.50;51.30
1337;DHT22;662;48.814;9.318;2022-10-22T15:34:20;21.40;51.50
1337;DHT22;662;48.814;9.318;2022-10-22T15:36:47;21.40;51.40
1337;DHT22;662;48.814;9.318;2022-10-22T15:39:12;21.30;51.30
1337;DHT22;662;48.814;9.318;2022-10-22T15:41:38;21.30;51.80
1337;DHT22;662;48.814;9.318;2022-10-22T15:44:04;21.20;52.00
1337;DHT22;662;48.814;9.318;2022-10-22T15:46:33;21.10;52.20
1337;DHT22;662;48.814;9.318;2022-10-22T15:48:59;21.10;52.60
1337;DHT22;662;48.814;9.318;2022-10-22T15:51:25;21.00;52.80
1337;DHT22;662;48.814;9.318;2022-10-22T15:53:56;21.00;54.10
1337;DHT22;662;48.814;9.318;2022-10-22T15:56:23;20.90;53.90
1337;DHT22;662;48.814;9.318;2022-10-22T15:58:58;20.80;54.10
1337;DHT22;662;48.814;9.318;2022-10-22T16:01:25;20.70;54.30
1337;DHT22;662;48.814;9.318;2022-10-22T16:03:52;20.60;54.50
1337;DHT22;662;48.814;9.318;2022-10-22T16:06:29;20.60;54.90
1337;DHT22;662;48.814;9.318;2022-10-22T16:08:56;20.50;55.30
1337;DHT22;662;48.814;9.318;2022-10-22T16:11:23;20.40;55.50
1337;DHT22;662;48.814;9.318;2022-10-22T16:13:52;20.30;55.80
1337;DHT22;662;48.814;9.318;2022-10-22T16:16:18;20.20;56.00
1337;DHT22;662;48.814;9.318;2022-10-22T16:18:44;20.10;56.10
1337;DHT22;662;48.814;9.318;2022-10-22T16:21:13;20.10;56.40
1337;DHT22;662;48.814;9.318;2022-10-22T16:23:39;19.90;56.50
1337;DHT22;662;48.814;9.318;2022-10-22T16:26:05;19.90;56.90
1337;DHT22;662;48.814;9.318;2022-10-22T16:28:30;19.80;57.20
1337;DHT22;662;48.814;9.318;2022-10-22T16:31:01;19.80;57.60
1337;DHT22;662;48.814;9.318;2022-10-22T16:33:26;19.70;57.80
1337;DHT22;662;48.814;9.318;2022-10-22T16:35:52;19.60;58.10
1337;DHT22;662;48.814;9.318;2022-10-22T16:38:17;19.60;58.40
1337;DHT22;662;48.814;9.318;2022-10-22T16:40:43;19.50;58.70
1337;DHT22;662;48.814;9.318;2022-10-22T16:43:09;19.40;59.10
1337;DHT22;662;48.814;9.318;2022-10-22T16:45:34;19.30;59.40
1337;DHT22;662;48.814;9.318;2022-10-22T16:48:00;19.20;59.40
1337;DHT22;662;48.814;9.318;2022-10-22T16:50:25;19.20;59.60
1337;DHT22;662;48.814;9.318;2022-10-22T16:52:51;19.10;59.70
1337;DHT22;662;48.814;9.318;2022-10-22T16:55:17;19.10;59.90
1337;DHT22;662;48.814;9.318;2022-10-22T16:57:42;19.00;60.00
1337;DHT22;662;48.814;9.318;2022-10-22T17:00:08;18.90;60.30
1337;DHT22;662;48.814;9.318;2022-10-22T17:02:34;18.90;60.60
1337;DHT22;662;48.814;9.318;2022-10-22T17:05:02;18.80;60.80
1337;DHT22;662;48.814;9.318;2022-10-22T17:07:29;18.80;61.10
1337;DHT22;662;48.814;9.318;2022-10-22T17:09:58;18.80;61.30
1337;DHT22;662;48.814;9.318;2022-10-22T17:12:25;18.70;61.50
1337;DHT22;662;48.814;9.318;2022-10-22T17:14:51;18.60;61.60
1337;DHT22;662;48.814;9.318;2022-10-22T17:17:16;18.60;61.90
1337;DHT22;662;48.814;9.318;2022-10-22T17:19:42;18.60;62.00
1337;DHT22;662;48.814;9.318;2022-10-22T17:22:07;18.50;61.90
1337;DHT22;662;48.814;9.318;2022-10-22T17:24:33;18.50;62.10
1337;DHT22;662;48.814;9.318;2022-10-22T17:26:59;18.40;62.20
1337;DHT22;662;48.814;9.318;2022-10-22T17:29:25;18.30;62.20
1337;DHT22;662;48.814;9.318;2022-10-22T17:31:50;18.30;62.30
1337;DHT22;662;48.814;9.318;2022-10-22T17:34:16;18.20;62.30
1337;DHT22;662;48.814;9.318;2022-10-22T17:36:43;18.20;63.10
1337;DHT22;662;48.814;9.318;2022-10-22T17:39:14;18.10;62.50
1337;DHT22;662;48.814;9.318;2022-10-22T17:41:41;18.10;62.80
1337;DHT22;662;48.814;9.318;2022-10-22T17:44:07;18.00;62.80
1337;DHT22;662;48.814;9.318;2022-10-22T17:46:37;17.90;63.10
1337;DHT22;662;48.814;9.318;2022-10-22T17:49:06;17.90;63.40
1337;DHT22;662;48.814;9.318;2022-10-22T17:51:32;17.80;63.50
1337;DHT22;662;48.814;9.318;2022-10-22T17:53:58;17.80;63.70
1337;DHT22;662;48.814;9.318;2022-10-22T17:56:26;17.70;63.80
1337;DHT22;662;48.814;9.318;2022-10-22T17:58:53;17.70;64.00
1337;DHT22;662;48.814;9.318;2022-10-22T18:03:46;17.60;64.30
1337;DHT22;662;48.814;9.318;2022-10-22T18:06:12;17.60;64.50
1337;DHT22;662;48.814;9.318;2022-10-22T18:08:37;17.50;64.50
1337;DHT22;662;48.814;9.318;2022-10-22T18:11:12;17.50;64.70
1337;DHT22;662;48.814;9.318;2022-10-22T18:13:41;17.50;64.90
1337;DHT22;662;48.814;9.318;2022-10-22T18:16:06;17.40;65.00
1337;DHT22;662;48.814;9.318;2022-10-22T18:18:35;17.30;65.00